sensor_id;sensor_type;location;lat;lon;timestamp;pressure;altitude;pressure_sealevel;temperature;humidity
21594;BME280;10959;51.328;7.322;2023-02-12T00:02:14;100856.00;;;9.51;82.93
21594;BME280;10959;51.328;7.322;2023-02-12T00:04:41;100861.38;;;9.51;83.29
21594;BME280;10959;51.328;7.322;2023-02-12T00:07:07;100861.44;;;9.45;83.70
21594;BME280;10959;51.328;7.322;2023-02-12T00:09:36;100865.94;;;9.46;83.64
21594;BME280;10959;51.328;7.322;2023-02-12T00:12:02;100868.66;;;9.43;83.75
21594;BME280;10959;51.328;7.322;2023-02-12T00:14:29;100865.97;;;9.43;84.12
21594;BME280;10959;51.328;7.322;2023-02-12T00:16:55;100865.03;;;9.44;84.13
21594;BME280;10959;51.328;7.322;2023-02-12T00:19:22;100860.56;;;9.45;84.21
21594;BME280;10959;51.328;7.322;2023-02-12T00:21:48;100850.69;;;9.45;83.84
21594;BME280;10959;51.328;7.322;2023-02-12T00:24:15;100855.16;;;9.46;83.55
21594;BME280;10959;51.328;7.322;2023-02-12T00:26:43;100857.88;;;9.46;83.68
21594;BME280;10959;51.328;7.322;2023-02-12T00:29:09;100853.38;;;9.45;83.74
21594;BME280;10959;51.328;7.322;2023-02-12T00:31:36;100853.34;;;9.48;83.78
21594;BME280;10959;51.328;7.322;2023-02-12T00:34:02;100840.81;;;9.46;83.77
21594;BME280;10959;51.328;7.322;2023-02-12T00:36:30;100854.28;;;9.47;83.22
21594;BME280;10959;51.328;7.322;2023-02-12T00:38:57;100856.06;;;9.45;83.40
21594;BME280;10959;51.328;7.322;2023-02-12T00:41:25;100847.97;;;9.47;83.81
21594;BME280;10959;51.328;7.322;2023-02-12T00:43:53;100848.91;;;9.47;83.49
21594;BME280;10959;51.328;7.322;2023-02-12T00:46:20;100845.31;;;9.45;83.91
21594;BME280;10959;51.328;7.322;2023-02-12T00:48:46;100847.16;;;9.43;83.48
21594;BME280;10959;51.328;7.322;2023-02-12T00:51:13;100852.47;;;9.46;83.26
21594;BME280;10959;51.328;7.322;2023-02-12T00:53:40;100855.22;;;9.43;83.52
21594;BME280;10959;51.328;7.322;2023-02-12T00:56:07;100854.28;;;9.44;83.13
21594;BME280;10959;51.328;7.322;2023-02-12T00:58:33;100855.16;;;9.46;83.52
21594;BME280;10959;51.328;7.322;2023-02-12T01:01:01;100849.81;;;9.45;83.49
21594;BME280;10959;51.328;7.322;2023-02-12T01:03:27;100856.09;;;9.44;83.54
21594;BME280;10959;51.328;7.322;2023-02-12T01:05:54;100850.72;;;9.42;83.61
21594;BME280;10959;51.328;7.322;2023-02-12T01:08:21;100860.63;;;9.40;83.70
21594;BME280;10959;51.328;7.322;2023-02-12T01:10:53;100858.03;;;9.31;83.11
21594;BME280;10959;51.328;7.322;2023-02-12T01:13:20;100859.69;;;9.41;83.64
21594;BME280;10959;51.328;7.322;2023-02-12T01:15:48;100857.94;;;9.40;82.98
21594;BME280;10959;51.328;7.322;2023-02-12T01:18:16;100859.69;;;9.41;83.00
21594;BME280;10959;51.328;7.322;2023-02-12T01:20:42;100864.22;;;9.39;83.50
21594;BME280;10959;51.328;7.322;2023-02-12T01:23:08;100867.78;;;9.41;83.46
21594;BME280;10959;51.328;7.322;2023-02-12T01:25:37;100859.69;;;9.41;83.49
21594;BME280;10959;51.328;7.322;2023-02-12T01:28:03;100854.31;;;9.41;83.50
21594;BME280;10959;51.328;7.322;2023-02-12T01:30:30;100857.00;;;9.41;83.01
21594;BME280;10959;51.328;7.322;2023-02-12T01:32:56;100848.06;;;9.41;83.25
21594;BME280;10959;51.328;7.322;2023-02-12T01:35:26;100857.00;;;9.41;83.26
21594;BME280;10959;51.328;7.322;2023-02-12T01:37:53;100857.03;;;9.40;83.26
21594;BME280;10959;51.328;7.322;2023-02-12T01:40:19;100848.97;;;9.40;83.32
21594;BME280;10959;51.328;7.322;2023-02-12T01:42:46;100853.47;;;9.39;83.42
21594;BME280;10959;51.328;7.322;2023-02-12T01:45:45;100849.28;;;9.13;83.11
21594;BME280;10959;51.328;7.322;2023-02-12T01:48:13;100847.25;;;9.34;83.03
21594;BME280;10959;51.328;7.322;2023-02-12T01:50:43;100843.66;;;9.35;82.83
21594;BME280;10959;51.328;7.322;2023-02-12T01:53:12;100847.19;;;9.37;83.16
21594;BME280;10959;51.328;7.322;2023-02-12T01:55:45;100840.97;;;9.35;83.41
21594;BME280;10959;51.328;7.322;2023-02-12T01:58:13;100840.06;;;9.36;83.32
21594;BME280;10959;51.328;7.322;2023-02-12T02:00:40;100840.94;;;9.37;83.28
21594;BME280;10959;51.328;7.322;2023-02-12T02:03:06;100844.53;;;9.36;83.20
21594;BME280;10959;51.328;7.322;2023-02-12T02:05:40;100842.81;;;9.28;82.97
21594;BME280;10959;51.328;7.322;2023-02-12T02:08:10;100840.06;;;9.33;83.37
21594;BME280;10959;51.328;7.322;2023-02-12T02:10:37;100849.06;;;9.33;83.42
21594;BME280;10959;51.328;7.322;2023-02-12T02:13:04;100848.13;;;9.36;83.35
21594;BME280;10959;51.328;7.322;2023-02-12T02:15:51;100845.44;;;9.33;82.79
21594;BME280;10959;51.328;7.322;2023-02-12T02:18:26;100834.78;;;9.27;83.16
21594;BME280;10959;51.328;7.322;2023-02-12T02:21:17;100839.44;;;9.11;83.40
21594;BME280;10959;51.328;7.322;2023-02-12T02:27:07;100837.69;;;9.07;83.67
21594;BME280;10959;51.328;7.322;2023-02-12T02:29:48;100837.63;;;9.11;83.05
21594;BME280;10959;51.328;7.322;2023-02-12T02:32:22;100831.28;;;9.22;83.21
21594;BME280;10959;51.328;7.322;2023-02-12T02:34:54;100834.81;;;9.24;83.44
21594;BME280;10959;51.328;7.322;2023-02-12T02:37:27;100829.41;;;9.27;82.85
21594;BME280;10959;51.328;7.322;2023-02-12T02:39:59;100831.19;;;9.28;82.99
21594;BME280;10959;51.328;7.322;2023-02-12T02:42:32;100824.09;;;9.21;83.11
21594;BME280;10959;51.328;7.322;2023-02-12T02:45:06;100826.75;;;9.24;83.39
21594;BME280;10959;51.328;7.322;2023-02-12T02:47:40;100827.66;;;9.21;83.24
21594;BME280;10959;51.328;7.322;2023-02-12T02:50:12;100831.19;;;9.28;82.91
21594;BME280;10959;51.328;7.322;2023-02-12T02:52:42;100827.59;;;9.26;82.59
21594;BME280;10959;51.328;7.322;2023-02-12T02:55:15;100824.06;;;9.24;83.00
21594;BME280;10959;51.328;7.322;2023-02-12T02:57:45;100829.44;;;9.24;83.16
21594;BME280;10959;51.328;7.322;2023-02-12T03:00:17;100831.22;;;9.25;82.59
21594;BME280;10959;51.328;7.322;2023-02-12T03:02:49;100830.34;;;9.21;82.76
21594;BME280;10959;51.328;7.322;2023-02-12T03:05:21;100828.53;;;9.25;82.63
21594;BME280;10959;51.328;7.322;2023-02-12T03:07:53;100821.38;;;9.24;82.70
21594;BME280;10959;51.328;7.322;2023-02-12T03:10:25;100832.97;;;9.29;82.59
21594;BME280;10959;51.328;7.322;2023-02-12T03:12:56;100816.84;;;9.26;82.94
21594;BME280;10959;51.328;7.322;2023-02-12T03:15:31;100818.72;;;9.21;82.42
21594;BME280;10959;51.328;7.322;2023-02-12T03:18:04;100824.09;;;9.21;82.83
21594;BME280;10959;51.328;7.322;2023-02-12T03:20:35;100821.38;;;9.24;82.60
21594;BME280;10959;51.328;7.322;2023-02-12T03:23:06;100820.47;;;9.25;82.98
21594;BME280;10959;51.328;7.322;2023-02-12T03:25:38;100822.31;;;9.20;82.93
21594;BME280;10959;51.328;7.322;2023-02-12T03:28:08;100822.28;;;9.21;82.96
21594;BME280;10959;51.328;7.322;2023-02-12T03:30:42;100822.34;;;9.16;82.44
21594;BME280;10959;51.328;7.322;2023-02-12T03:33:18;100818.78;;;9.18;83.04
21594;BME280;10959;51.328;7.322;2023-02-12T03:35:53;100815.19;;;9.15;82.44
21594;BME280;10959;51.328;7.322;2023-02-12T03:38:27;100818.78;;;9.14;82.81
21594;BME280;10959;51.328;7.322;2023-02-12T03:40:58;100816.03;;;9.21;82.75
21594;BME280;10959;51.328;7.322;2023-02-12T03:43:32;100813.41;;;9.18;82.99
21594;BME280;10959;51.328;7.322;2023-02-12T03:46:07;100811.56;;;9.20;82.75
21594;BME280;10959;51.328;7.322;2023-02-12T03:48:44;100815.19;;;9.15;82.43
21594;BME280;10959;51.328;7.322;2023-02-12T03:51:17;100815.19;;;9.15;82.75
21594;BME280;10959;51.328;7.322;2023-02-12T03:53:46;100816.91;;;9.23;82.74
21594;BME280;10959;51.328;7.322;2023-02-12T03:56:17;100822.31;;;9.20;82.13
21594;BME280;10959;51.328;7.322;2023-02-12T03:58:45;100825.84;;;9.25;82.99
21594;BME280;10959;51.328;7.322;2023-02-12T04:01:12;100815.97;;;9.25;82.51
21594;BME280;10959;51.328;7.322;2023-02-12T04:03:41;100818.69;;;9.24;82.43
21594;BME280;10959;51.328;7.322;2023-02-12T04:06:18;100822.44;;;9.07;82.40
21594;BME280;10959;51.328;7.322;2023-02-12T04:08:45;100824.09;;;9.21;82.65
21594;BME280;10959;51.328;7.322;2023-02-12T04:11:19;100831.34;;;9.12;83.01
21594;BME280;10959;51.328;7.322;2023-02-12T04:13:59;100826.09;;;9.03;83.54
21594;BME280;10959;51.328;7.322;2023-02-12T04:16:34;100831.41;;;9.09;83.68
21594;BME280;10959;51.328;7.322;2023-02-12T04:19:09;100833.19;;;9.07;84.00
21594;BME280;10959;51.328;7.322;2023-02-12T04:21:44;100830.50;;;9.07;84.24
21594;BME280;10959;51.328;7.322;2023-02-12T04:24:21;100833.09;;;9.16;84.18
21594;BME280;10959;51.328;7.322;2023-02-12T04:26:54;100836.69;;;9.15;83.90
21594;BME280;10959;51.328;7.322;2023-02-12T04:29:26;100851.03;;;9.18;83.76
21594;BME280;10959;51.328;7.322;2023-02-12T04:32:03;100848.41;;;9.08;83.00
21594;BME280;10959;51.328;7.322;2023-02-12T04:34:37;100852.91;;;9.09;83.29
21594;BME280;10959;51.328;7.322;2023-02-12T04:37:11;100846.63;;;9.10;83.25
21594;BME280;10959;51.328;7.322;2023-02-12T04:39:41;100859.09;;;9.16;83.40
21594;BME280;10959;51.328;7.322;2023-02-12T04:42:10;100858.19;;;9.15;83.18
21594;BME280;10959;51.328;7.322;2023-02-12T04:44:38;100860.88;;;9.17;83.29
21594;BME280;10959;51.328;7.322;2023-02-12T04:47:05;100856.41;;;9.18;83.40
21594;BME280;10959;51.328;7.322;2023-02-12T04:49:33;100863.56;;;9.15;83.62
21594;BME280;10959;51.328;7.322;2023-02-12T04:51:59;100870.75;;;9.16;83.45
21594;BME280;10959;51.328;7.322;2023-02-12T04:54:26;100868.94;;;9.15;83.17
21594;BME280;10959;51.328;7.322;2023-02-12T04:56:53;100867.16;;;9.18;83.23
21594;BME280;10959;51.328;7.322;2023-02-12T04:59:19;100864.47;;;9.16;83.65
21594;BME280;10959;51.328;7.322;2023-02-12T05:01:46;100873.44;;;9.16;83.12
21594;BME280;10959;51.328;7.322;2023-02-12T05:04:14;100872.53;;;9.18;83.11
21594;BME280;10959;51.328;7.322;2023-02-12T05:06:42;100868.91;;;9.19;82.88
21594;BME280;10959;51.328;7.322;2023-02-12T05:09:13;100865.41;;;9.13;83.28
21594;BME280;10959;51.328;7.322;2023-02-12T05:11:40;100861.78;;;9.18;83.33
21594;BME280;10959;51.328;7.322;2023-02-12T05:14:06;100861.78;;;9.18;83.33
21594;BME280;10959;51.328;7.322;2023-02-12T05:16:33;100863.53;;;9.19;83.69
21594;BME280;10959;51.328;7.322;2023-02-12T05:18:59;100865.38;;;9.16;83.67
21594;BME280;10959;51.328;7.322;2023-02-12T05:21:26;100863.56;;;9.15;83.27
21594;BME280;10959;51.328;7.322;2023-02-12T05:23:54;100872.53;;;9.18;83.00
21594;BME280;10959;51.328;7.322;2023-02-12T05:26:21;100876.13;;;9.16;83.34
21594;BME280;10959;51.328;7.322;2023-02-12T05:28:47;100875.22;;;9.18;83.91
21594;BME280;10959;51.328;7.322;2023-02-12T05:31:16;100871.63;;;9.17;83.57
21594;BME280;10959;51.328;7.322;2023-02-12T05:33:44;100875.22;;;9.18;83.45
21594;BME280;10959;51.328;7.322;2023-02-12T05:36:13;100877.91;;;9.14;83.28
21594;BME280;10959;51.328;7.322;2023-02-12T05:38:39;100879.66;;;9.19;83.59
21594;BME280;10959;51.328;7.322;2023-02-12T05:41:09;100886.88;;;9.16;83.17
21594;BME280;10959;51.328;7.322;2023-02-12T05:43:36;100883.28;;;9.18;83.10
21594;BME280;10959;51.328;7.322;2023-02-12T05:46:04;100878.78;;;9.18;83.52
21594;BME280;10959;51.328;7.322;2023-02-12T05:48:32;100888.66;;;9.18;83.45
21594;BME280;10959;51.328;7.322;2023-02-12T05:51:02;100883.31;;;9.11;83.21
21594;BME280;10959;51.328;7.322;2023-02-12T05:53:29;100883.28;;;9.18;83.22
21594;BME280;10959;51.328;7.322;2023-02-12T05:56:08;100882.53;;;9.03;83.02
21594;BME280;10959;51.328;7.322;2023-02-12T05:58:35;100883.28;;;9.14;83.43
21594;BME280;10959;51.328;7.322;2023-02-12T06:01:02;100880.59;;;9.16;83.48
21594;BME280;10959;51.328;7.322;2023-02-12T06:03:28;100881.44;;;9.20;83.31
21594;BME280;10959;51.328;7.322;2023-02-12T06:05:55;100881.50;;;9.16;83.11
21594;BME280;10959;51.328;7.322;2023-02-12T06:08:21;100888.69;;;9.16;83.35
21594;BME280;10959;51.328;7.322;2023-02-12T06:10:48;100888.66;;;9.18;83.06
21594;BME280;10959;51.328;7.322;2023-02-12T06:13:16;100885.97;;;9.14;83.49
21594;BME280;10959;51.328;7.322;2023-02-12T06:15:42;100887.75;;;9.17;83.39
21594;BME280;10959;51.328;7.322;2023-02-12T06:18:09;100892.25;;;9.16;83.18
21594;BME280;10959;51.328;7.322;2023-02-12T06:20:37;100887.78;;;9.14;83.29
21594;BME280;10959;51.328;7.322;2023-02-12T06:23:04;100885.03;;;9.19;83.01
21594;BME280;10959;51.328;7.322;2023-02-12T06:25:30;100889.56;;;9.15;83.48
21594;BME280;10959;51.328;7.322;2023-02-12T06:27:57;100883.28;;;9.14;83.36
21594;BME280;10959;51.328;7.322;2023-02-12T06:30:25;100889.53;;;9.18;83.20
21594;BME280;10959;51.328;7.322;2023-02-12T06:32:51;100892.25;;;9.16;83.29
21594;BME280;10959;51.328;7.322;2023-02-12T06:35:18;100892.25;;;9.16;83.29
21594;BME280;10959;51.328;7.322;2023-02-12T06:37:44;100895.81;;;9.15;83.66
21594;BME280;10959;51.328;7.322;2023-02-12T06:40:12;100895.81;;;9.15;83.04
21594;BME280;10959;51.328;7.322;2023-02-12T06:42:38;100895.81;;;9.15;83.38
21594;BME280;10959;51.328;7.322;2023-02-12T06:45:05;100903.00;;;9.15;83.28
21594;BME280;10959;51.328;7.322;2023-02-12T06:47:33;100901.19;;;9.15;83.19
21594;BME280;10959;51.328;7.322;2023-02-12T06:50:00;100912.88;;;9.16;83.14
21594;BME280;10959;51.328;7.322;2023-02-12T06:52:26;100901.19;;;9.15;82.92
21594;BME280;10959;51.328;7.322;2023-02-12T06:54:53;100903.03;;;9.13;83.22
21594;BME280;10959;51.328;7.322;2023-02-12T06:57:20;100911.06;;;9.15;83.51
21594;BME280;10959;51.328;7.322;2023-02-12T06:59:47;100908.38;;;9.16;83.14
21594;BME280;10959;51.328;7.322;2023-02-12T07:02:14;100911.94;;;9.15;83.49
21594;BME280;10959;51.328;7.322;2023-02-12T07:04:42;100911.06;;;9.16;82.80
21594;BME280;10959;51.328;7.322;2023-02-12T07:07:08;100912.84;;;9.18;83.56
21594;BME280;10959;51.328;7.322;2023-02-12T07:09:35;100912.84;;;9.18;82.90
21594;BME280;10959;51.328;7.322;2023-02-12T07:12:02;100921.81;;;9.16;82.89
21594;BME280;10959;51.328;7.322;2023-02-12T07:14:29;100920.91;;;9.14;82.88
21594;BME280;10959;51.328;7.322;2023-02-12T07:16:56;100921.81;;;9.16;82.74
21594;BME280;10959;51.328;7.322;2023-02-12T07:19:23;100929.84;;;9.20;82.85
21594;BME280;10959;51.328;7.322;2023-02-12T07:21:51;100928.97;;;9.18;82.89
21594;BME280;10959;51.328;7.322;2023-02-12T07:24:17;100928.03;;;9.19;83.16
21594;BME280;10959;51.328;7.322;2023-02-12T07:26:44;100929.84;;;9.20;83.50
21594;BME280;10959;51.328;7.322;2023-02-12T07:29:10;100931.63;;;9.21;83.44
21594;BME280;10959;51.328;7.322;2023-02-12T07:31:37;100936.97;;;9.24;82.97
21594;BME280;10959;51.328;7.322;2023-02-12T07:34:03;100935.19;;;9.23;83.43
21594;BME280;10959;51.328;7.322;2023-02-12T07:36:31;100933.38;;;9.25;82.94
21594;BME280;10959;51.328;7.322;2023-02-12T07:38:59;100940.50;;;9.26;83.22
21594;BME280;10959;51.328;7.322;2023-02-12T07:41:27;100949.47;;;9.28;83.18
21594;BME280;10959;51.328;7.322;2023-02-12T07:43:55;100949.47;;;9.28;83.51
21594;BME280;10959;51.328;7.322;2023-02-12T07:46:24;100956.66;;;9.26;83.42
21594;BME280;10959;51.328;7.322;2023-02-12T07:48:54;100953.03;;;9.30;83.20
21594;BME280;10959;51.328;7.322;2023-02-12T07:51:22;100952.16;;;9.28;83.46
21594;BME280;10959;51.328;7.322;2023-02-12T07:53:48;100945.84;;;9.32;83.21
21594;BME280;10959;51.328;7.322;2023-02-12T07:56:18;100958.38;;;9.33;83.10
21594;BME280;10959;51.328;7.322;2023-02-12T07:58:47;100951.22;;;9.32;83.46
21594;BME280;10959;51.328;7.322;2023-02-12T08:01:17;100951.22;;;9.32;83.05
21594;BME280;10959;51.328;7.322;2023-02-12T08:03:44;100953.88;;;9.37;83.34
21594;BME280;10959;51.328;7.322;2023-02-12T08:06:13;100954.72;;;9.43;83.12
21594;BME280;10959;51.328;7.322;2023-02-12T08:08:40;100950.19;;;9.45;83.30
21594;BME280;10959;51.328;7.322;2023-02-12T08:11:08;100955.53;;;9.48;83.42
21594;BME280;10959;51.328;7.322;2023-02-12T08:13:37;100958.19;;;9.55;82.93
21594;BME280;10959;51.328;7.322;2023-02-12T08:16:05;100947.38;;;9.58;82.84
21594;BME280;10959;51.328;7.322;2023-02-12T08:18:33;100949.13;;;9.62;83.18
21594;BME280;10959;51.328;7.322;2023-02-12T08:21:01;100948.19;;;9.64;83.04
21594;BME280;10959;51.328;7.322;2023-02-12T08:23:28;100959.84;;;9.65;82.93
21594;BME280;10959;51.328;7.322;2023-02-12T08:26:04;100961.72;;;9.57;82.68
21594;BME280;10959;51.328;7.322;2023-02-12T08:28:30;100966.03;;;9.75;83.29
21594;BME280;10959;51.328;7.322;2023-02-12T08:31:00;100970.50;;;9.74;82.48
21594;BME280;10959;51.328;7.322;2023-02-12T08:33:27;100971.38;;;9.76;82.44
21594;BME280;10959;51.328;7.322;2023-02-12T08:36:00;100975.94;;;9.68;82.76
21594;BME280;10959;51.328;7.322;2023-02-12T08:38:26;100979.41;;;9.79;83.15
21594;BME280;10959;51.328;7.322;2023-02-12T08:40:53;100981.19;;;9.82;82.37
21594;BME280;10959;51.328;7.322;2023-02-12T08:43:19;100979.34;;;9.85;82.56
21594;BME280;10959;51.328;7.322;2023-02-12T08:45:46;100976.59;;;9.89;82.21
21594;BME280;10959;51.328;7.322;2023-02-12T08:48:14;100972.13;;;9.91;81.70
21594;BME280;10959;51.328;7.322;2023-02-12T08:50:40;100980.22;;;9.88;81.71
21594;BME280;10959;51.328;7.322;2023-02-12T08:53:06;100981.13;;;9.86;81.93
21594;BME280;10959;51.328;7.322;2023-02-12T08:55:33;100984.72;;;9.85;82.18
21594;BME280;10959;51.328;7.322;2023-02-12T08:58:00;100983.81;;;9.86;82.25
21594;BME280;10959;51.328;7.322;2023-02-12T09:00:27;100986.44;;;9.93;82.00
21594;BME280;10959;51.328;7.322;2023-02-12T09:02:54;100981.88;;;9.99;81.97
21594;BME280;10959;51.328;7.322;2023-02-12T09:05:22;100986.28;;;10.05;81.67
21594;BME280;10959;51.328;7.322;2023-02-12T09:07:50;100979.97;;;10.08;81.59
21594;BME280;10959;51.328;7.322;2023-02-12T09:10:18;100984.50;;;10.04;81.22
21594;BME280;10959;51.328;7.322;2023-02-12T09:12:44;100989.84;;;10.07;81.59
21594;BME280;10959;51.328;7.322;2023-02-12T09:15:11;100985.38;;;10.08;81.45
21594;BME280;10959;51.328;7.322;2023-02-12T09:17:37;100986.16;;;10.14;80.85
21594;BME280;10959;51.328;7.322;2023-02-12T09:20:06;100980.75;;;10.19;81.16
21594;BME280;10959;51.328;7.322;2023-02-12T09:22:34;100996.81;;;10.24;80.72
21594;BME280;10959;51.328;7.322;2023-02-12T09:25:02;100992.25;;;10.32;80.62
21594;BME280;10959;51.328;7.322;2023-02-12T09:27:29;100998.41;;;10.43;80.72
21594;BME280;10959;51.328;7.322;2023-02-12T09:29:55;100992.88;;;10.52;80.74
21594;BME280;10959;51.328;7.322;2023-02-12T09:32:22;100994.66;;;10.53;80.08
21594;BME280;10959;51.328;7.322;2023-02-12T09:34:48;100998.16;;;10.59;79.98
21594;BME280;10959;51.328;7.322;2023-02-12T09:37:15;101005.34;;;10.60;79.93
21594;BME280;10959;51.328;7.322;2023-02-12T09:39:42;100996.31;;;10.64;79.99
21594;BME280;10959;51.328;7.322;2023-02-12T09:42:29;100998.31;;;10.49;79.32
21594;BME280;10959;51.328;7.322;2023-02-12T09:45:05;100997.22;;;10.63;78.68
21594;BME280;10959;51.328;7.322;2023-02-12T09:47:38;100999.81;;;10.70;78.98
21594;BME280;10959;51.328;7.322;2023-02-12T09:50:26;101003.53;;;10.62;78.53
21594;BME280;10959;51.328;7.322;2023-02-12T09:52:57;101004.22;;;10.76;77.98
21594;BME280;10959;51.328;7.322;2023-02-12T09:55:28;101001.53;;;10.73;78.09
21594;BME280;10959;51.328;7.322;2023-02-12T09:57:56;100996.03;;;10.82;78.38
21594;BME280;10959;51.328;7.322;2023-02-12T10:00:25;100999.47;;;10.94;78.00
21594;BME280;10959;51.328;7.322;2023-02-12T10:02:56;100996.59;;;11.03;78.16
21594;BME280;10959;51.328;7.322;2023-02-12T10:05:24;100995.84;;;10.95;77.58
21594;BME280;10959;51.328;7.322;2023-02-12T10:08:14;101001.78;;;10.58;76.21
21594;BME280;10959;51.328;7.322;2023-02-12T10:10:52;101009.72;;;10.68;76.76
21594;BME280;10959;51.328;7.322;2023-02-12T10:13:33;101004.56;;;10.50;76.98
21594;BME280;10959;51.328;7.322;2023-02-12T10:16:09;101003.38;;;10.71;76.66
21594;BME280;10959;51.328;7.322;2023-02-12T10:18:50;101000.56;;;10.79;76.45
21594;BME280;10959;51.328;7.322;2023-02-12T10:21:32;100998.16;;;10.59;75.93
21594;BME280;10959;51.328;7.322;2023-02-12T10:24:17;100995.53;;;10.54;76.16
21594;BME280;10959;51.328;7.322;2023-02-12T10:26:54;100997.94;;;10.74;76.80
21594;BME280;10959;51.328;7.322;2023-02-12T10:29:24;101006.00;;;10.76;76.57
21594;BME280;10959;51.328;7.322;2023-02-12T10:31:53;101003.34;;;10.74;75.72
21594;BME280;10959;51.328;7.322;2023-02-12T10:34:24;101004.19;;;10.78;76.41
21594;BME280;10959;51.328;7.322;2023-02-12T10:36:53;100999.59;;;10.84;76.42
21594;BME280;10959;51.328;7.322;2023-02-12T10:39:25;100996.78;;;10.92;76.25
21594;BME280;10959;51.328;7.322;2023-02-12T10:42:01;101003.16;;;10.86;76.88
21594;BME280;10959;51.328;7.322;2023-02-12T10:44:31;101002.88;;;11.05;76.59
21594;BME280;10959;51.328;7.322;2023-02-12T10:46:57;100993.88;;;11.04;76.01
21594;BME280;10959;51.328;7.322;2023-02-12T10:49:24;100995.75;;;11.01;74.96
21594;BME280;10959;51.328;7.322;2023-02-12T10:52:00;101001.38;;;10.85;75.22
21594;BME280;10959;51.328;7.322;2023-02-12T10:54:38;100995.00;;;10.91;75.27
21594;BME280;10959;51.328;7.322;2023-02-12T10:57:10;100992.16;;;10.99;75.77
21594;BME280;10959;51.328;7.322;2023-02-12T10:59:37;100997.31;;;11.14;75.66
21594;BME280;10959;51.328;7.322;2023-02-12T11:02:17;100991.28;;;10.98;75.43
21594;BME280;10959;51.328;7.322;2023-02-12T11:04:44;100992.84;;;11.12;75.59
21594;BME280;10959;51.328;7.322;2023-02-12T11:07:11;100996.31;;;11.20;75.74
21594;BME280;10959;51.328;7.322;2023-02-12T11:09:39;100993.56;;;11.24;75.22
21594;BME280;10959;51.328;7.322;2023-02-12T11:12:18;100996.56;;;11.04;74.60
21594;BME280;10959;51.328;7.322;2023-02-12T11:14:48;100984.84;;;11.07;74.59
21594;BME280;10959;51.328;7.322;2023-02-12T11:17:22;100986.75;;;11.02;74.32
21594;BME280;10959;51.328;7.322;2023-02-12T11:20:01;100981.38;;;10.99;74.61
21594;BME280;10959;51.328;7.322;2023-02-12T11:22:28;100981.06;;;11.17;74.99
21594;BME280;10959;51.328;7.322;2023-02-12T11:24:59;100981.00;;;11.23;75.33
21594;BME280;10959;51.328;7.322;2023-02-12T11:27:29;100970.81;;;11.39;75.13
21594;BME280;10959;51.328;7.322;2023-02-12T11:30:13;100972.03;;;11.21;74.25
21594;BME280;10959;51.328;7.322;2023-02-12T11:32:40;100968.09;;;11.41;74.32
21594;BME280;10959;51.328;7.322;2023-02-12T11:35:12;100969.97;;;11.36;74.14
21594;BME280;10959;51.328;7.322;2023-02-12T11:37:41;100971.75;;;11.37;73.82
21594;BME280;10959;51.328;7.322;2023-02-12T11:40:15;100956.59;;;11.30;73.54
21594;BME280;10959;51.328;7.322;2023-02-12T11:42:47;100965.38;;;11.41;73.69
21594;BME280;10959;51.328;7.322;2023-02-12T11:45:15;100956.16;;;11.53;74.20
21594;BME280;10959;51.328;7.322;2023-02-12T11:47:43;100953.41;;;11.57;73.85
21594;BME280;10959;51.328;7.322;2023-02-12T11:50:21;100965.19;;;11.53;74.40
21594;BME280;10959;51.328;7.322;2023-02-12T11:52:51;100961.16;;;11.74;74.67
21594;BME280;10959;51.328;7.322;2023-02-12T11:55:21;100959.69;;;11.58;73.30
21594;BME280;10959;51.328;7.322;2023-02-12T11:57:51;100963.50;;;11.46;73.40
21594;BME280;10959;51.328;7.322;2023-02-12T12:00:20;100963.75;;;11.32;73.08
21594;BME280;10959;51.328;7.322;2023-02-12T12:02:49;100963.84;;;11.28;73.49
21594;BME280;10959;51.328;7.322;2023-02-12T12:05:20;100955.69;;;11.31;73.48
21594;BME280;10959;51.328;7.322;2023-02-12T12:07:49;100953.88;;;11.31;73.88
21594;BME280;10959;51.328;7.322;2023-02-12T12:10:21;100953.63;;;11.45;74.06
21594;BME280;10959;51.328;7.322;2023-02-12T12:12:55;100944.56;;;11.49;73.83
21594;BME280;10959;51.328;7.322;2023-02-12T12:15:26;100939.09;;;11.52;73.49
21594;BME280;10959;51.328;7.322;2023-02-12T12:18:20;100944.63;;;11.46;73.34
21594;BME280;10959;51.328;7.322;2023-02-12T12:21:12;100932.81;;;11.53;73.30
21594;BME280;10959;51.328;7.322;2023-02-12T12:23:43;100927.88;;;11.74;73.70
21594;BME280;10959;51.328;7.322;2023-02-12T12:26:21;100927.09;;;11.67;73.03
21594;BME280;10959;51.328;7.322;2023-02-12T12:28:52;100926.22;;;11.67;73.02
21594;BME280;10959;51.328;7.322;2023-02-12T12:31:24;100917.28;;;11.65;73.21
21594;BME280;10959;51.328;7.322;2023-02-12T12:33:59;100921.63;;;11.72;73.19
21594;BME280;10959;51.328;7.322;2023-02-12T12:36:51;100922.00;;;11.53;72.81
21594;BME280;10959;51.328;7.322;2023-02-12T12:39:34;100910.41;;;11.48;72.28
21594;BME280;10959;51.328;7.322;2023-02-12T12:42:29;100911.31;;;11.47;73.13
21594;BME280;10959;51.328;7.322;2023-02-12T12:45:13;100909.47;;;11.51;72.96
21594;BME280;10959;51.328;7.322;2023-02-12T12:47:52;100905.78;;;11.55;72.75
21594;BME280;10959;51.328;7.322;2023-02-12T12:50:34;100900.41;;;11.53;72.77
21594;BME280;10959;51.328;7.322;2023-02-12T12:53:17;100904.78;;;11.61;72.88
21594;BME280;10959;51.328;7.322;2023-02-12T12:56:03;100904.88;;;11.54;73.02
21594;BME280;10959;51.328;7.322;2023-02-12T12:58:44;100904.84;;;11.57;72.24
21594;BME280;10959;51.328;7.322;2023-02-12T13:01:41;100898.69;;;11.49;72.78
21594;BME280;10959;51.328;7.322;2023-02-12T13:04:28;100894.00;;;11.59;72.42
21594;BME280;10959;51.328;7.322;2023-02-12T13:07:11;100891.22;;;11.64;72.60
21594;BME280;10959;51.328;7.322;2023-02-12T13:10:05;100892.63;;;11.38;72.59
21594;BME280;10959;51.328;7.322;2023-02-12T13:12:48;100877.56;;;11.26;72.34
21594;BME280;10959;51.328;7.322;2023-02-12T13:15:24;100878.59;;;11.17;72.93
21594;BME280;10959;51.328;7.322;2023-02-12T13:17:57;100885.69;;;11.24;73.56
21594;BME280;10959;51.328;7.322;2023-02-12T13:20:34;100886.56;;;11.25;73.14